• Join FlightAware (Why Join?)
  • Login
  • US Flag 
08:17PM EST


 

Airport Tracker/Info


-or-


 

Live Flight TrackerFlight Track Log ✈ AWI4029 ✈ 15-Aug-2013 ✈ KALB - KPHL

Flight Track Log - Related Links

Times and Time Zones

All times are in EDT time to prevent confusion due to time zone crossing. See the AWI4029 flight status page for this flight to view local times or setup timezone preferences in your user account.

Time Position Orientation Groundspeed Altitude Reporting Facility
EDT Latitude Longitude Course Direction KTS MPH feet Rate Location/Type
05:37AM 42.7778 -73.8092 223° Southwest 155 178 1,700  Level Boston Center
05:37AM 42.8067 -73.8297 332° Northwest 176 203 2,700 1,740 Climbing Boston Center
05:39AM 42.7334 -74.1884 270° West  Level FlightAware Approximate
05:39AM 42.7950 -73.9311 261° West 202 232 5,600  Level Boston Center
05:40AM 42.7259 -74.3148 236° Southwest  Level FlightAware Approximate
05:40AM 42.7853 -74.0244 262° West 226 260 7,700  Level Boston Center
05:41AM 42.6561 -74.4016 220° Southwest  Level FlightAware Approximate
05:41AM 42.7714 -74.1258 259° West 254 292 9,800  Level Boston Center
05:42AM 42.5829 -74.4839 223° Southwest  Level FlightAware Approximate
05:42AM 42.7575 -74.2189 259° West 273 314 11,700  Level Boston Center
05:43AM 42.7019 -74.3075 230° Southwest 278 320 14,000 1,980 Climbing Boston Center
05:44AM 42.6486 -74.3736 222° Southwest 288 331 15,700 960 Climbing Boston Center
05:45AM 42.5783 -74.4617 223° Southwest 311 358 16,000 120 Climbing Boston Center
05:46AM 42.5208 -74.5358 224° Southwest 321 369 16,000  Level Boston Center
05:47AM 42.4439 -74.6292 222° Southwest 326 375 16,000  Level Boston Center
05:48AM 42.3842 -74.7056 223° Southwest 331 381 16,000 -60 Level Boston Center
05:49AM 42.3092 -74.8039 224° Southwest 331 381 15,900 -60 Descending Boston Center
05:50AM 42.2428 -74.8856 222° Southwest 331 381 15,900  Level Boston Center
05:51AM 42.1269 -74.9989 216° Southwest 334 384 16,000  Climbing New York Center
05:52AM 42.0497 -75.0664 213° Southwest 341 392 16,000  Level New York Center
05:53AM 41.9703 -75.1308 211° Southwest 341 392 16,000  Level New York Center
05:54AM 41.8822 -75.2031 211° Southwest 346 398 16,000  Level New York Center
05:55AM 41.8006 -75.2700 211° Southwest 346 398 16,000  Level New York Center
05:56AM 41.7211 -75.3342 211° Southwest 346 398 16,000 -60 Level New York Center
05:57AM 41.6503 -75.3903 211° Southwest 346 398 15,900 -840 Descending New York Center
05:58AM 41.5622 -75.4619 211° Southwest 346 398 14,400 -1,680 Descending New York Center
05:59AM 41.4847 -75.5231 211° Southwest 341 392 12,600 -1,200 Descending New York Center
06:00AM 41.4094 -75.5839 211° Southwest 334 384 12,000 -300 Descending New York Center
06:01AM 41.3319 -75.6447 211° Southwest 329 379 12,000  Level New York Center
06:02AM 41.2594 -75.6864 203° Southwest 323 372 12,000  Level New York Center
06:03AM 41.1664 -75.6686 172° South 318 366 12,000  Level New York Center
06:04AM 41.0656 -75.6367 167° South 343 395 12,000  Level New York Center
06:05AM 40.9689 -75.6050 166° South 356 410 12,000  Level New York Center
06:06AM 40.8825 -75.5769 166° South 356 410 12,000  Level New York Center
06:07AM 40.7839 -75.5425 165° South 356 410 12,000 -60 Level New York Center
06:08AM 40.6769 -75.5078 166° South 356 410 11,900 -540 Descending New York Center
06:09AM 40.5825 -75.4767 166° South 356 410 11,000 -960 Descending New York Center
06:10AM 40.4928 -75.4242 156° South 356 410 10,000 -540 Descending New York Center
06:11AM 40.3969 -75.3686 156° South 371 427 10,000  Level New York Center
06:12AM 40.3056 -75.3108 154° Southeast 366 421 10,000 -360 Level New York Center
06:13AM 40.2281 -75.2647 156° South 334 384 9,300 -1,020 Descending New York Center
06:14AM 40.1506 -75.2217 157° South 313 360 8,000 -1,380 Descending New York Center
06:15AM 40.0833 -75.1833 156° South 286 329 6,700 -1,380 Descending Philadelphia TRACON
06:16AM 40.0000 -75.1667 171° South 282 325 5,300 -1,320 Descending Philadelphia TRACON
06:17AM 39.9333 -75.1333 159° South 265 305 4,100 -780 Descending Philadelphia TRACON
06:18AM 39.8667 -75.1167 169° South 195 224 3,800 -720 Descending Philadelphia TRACON
06:19AM 39.8167 -75.1167 180° South 199 229 2,800 -1,140 Descending Philadelphia TRACON
06:20AM 39.7833 -75.1500 218° Southwest 182 209 1,600 -660 Descending Philadelphia TRACON
06:21AM 39.8000 -75.2000 293° West 138 159 1,500 -360 Descending Philadelphia TRACON
06:22AM 39.8333 -75.2167 339° North 127 146 900 -660 Descending Philadelphia TRACON
06:23AM 39.8667 -75.2333 339° North 129 148 200 -720 Descending Philadelphia TRACON